createdAt,value
2023-03-18T00:01:50.265Z,100.00
2023-03-18T00:03:53.090Z,100.00
2023-03-18T00:06:04.016Z,100.00
2023-03-18T00:08:07.126Z,100.00
2023-03-18T00:10:12.112Z,100.00
2023-03-18T00:12:15.535Z,100.00
2023-03-18T00:14:19.461Z,100.00
2023-03-18T00:16:22.293Z,100.00
2023-03-18T00:18:24.952Z,100.00
2023-03-18T00:20:38.836Z,100.00
2023-03-18T00:22:42.288Z,100.00
2023-03-18T00:24:44.956Z,100.00
2023-03-18T00:26:47.535Z,100.00
2023-03-18T00:28:50.710Z,100.00
2023-03-18T00:30:54.011Z,100.00
2023-03-18T00:32:58.154Z,100.00
2023-03-18T00:35:01.419Z,100.00
2023-03-18T00:37:05.613Z,100.00
2023-03-18T00:39:09.539Z,100.00
2023-03-18T00:41:16.174Z,100.00
2023-03-18T00:43:22.897Z,100.00
2023-03-18T00:45:25.326Z,100.00
2023-03-18T00:47:28.639Z,100.00
2023-03-18T00:49:31.085Z,100.00
2023-03-18T00:51:37.538Z,100.00
2023-03-18T00:53:42.122Z,100.00
2023-03-18T00:55:45.341Z,100.00
2023-03-18T00:57:48.162Z,100.00
2023-03-18T00:59:51.617Z,100.00
2023-03-18T01:01:54.075Z,100.00
2023-03-18T01:03:56.921Z,100.00
2023-03-18T01:05:59.945Z,100.00
2023-03-18T01:08:03.508Z,100.00
2023-03-18T01:10:07.931Z,100.00
2023-03-18T01:12:11.560Z,100.00
2023-03-18T01:14:14.183Z,100.00
2023-03-18T01:16:17.165Z,100.00
2023-03-18T01:18:19.820Z,100.00
2023-03-18T01:20:23.933Z,100.00
2023-03-18T01:22:26.520Z,100.00
2023-03-18T01:24:29.661Z,100.00
2023-03-18T01:26:32.650Z,100.00
2023-03-18T01:28:35.226Z,100.00
2023-03-18T01:30:39.762Z,100.00
2023-03-18T01:32:44.067Z,100.00
2023-03-18T01:34:47.048Z,100.00
2023-03-18T01:36:49.885Z,100.00
2023-03-18T01:38:52.468Z,100.00
2023-03-18T01:40:55.102Z,100.00
2023-03-18T01:43:05.550Z,100.00
2023-03-18T01:45:21.871Z,100.00
2023-03-18T01:47:25.333Z,100.00
2023-03-18T01:49:30.536Z,100.00
2023-03-18T01:51:33.676Z,100.00
2023-03-18T01:53:41.415Z,100.00
2023-03-18T01:55:46.290Z,100.00
2023-03-18T01:57:50.049Z,100.00
2023-03-18T01:59:54.272Z,100.00
2023-03-18T02:02:02.992Z,100.00
2023-03-18T02:04:07.730Z,100.00
2023-03-18T02:06:12.513Z,100.00
2023-03-18T02:08:15.788Z,100.00
2023-03-18T02:10:27.880Z,100.00
2023-03-18T02:12:34.680Z,100.00
2023-03-18T02:14:37.639Z,100.00
2023-03-18T02:17:23.867Z,100.00
2023-03-18T02:19:45.020Z,100.00
2023-03-18T02:21:56.734Z,100.00
2023-03-18T02:24:32.731Z,100.00
2023-03-18T02:26:48.599Z,100.00
2023-03-18T02:28:54.567Z,100.00
2023-03-18T02:31:01.524Z,100.00
2023-03-18T02:33:04.916Z,100.00
2023-03-18T02:35:11.177Z,100.00
2023-03-18T02:37:13.898Z,100.00
2023-03-18T02:39:16.615Z,100.00
2023-03-18T02:41:22.592Z,100.00
2023-03-18T02:43:31.940Z,100.00
2023-03-18T02:46:06.681Z,100.00
2023-03-18T02:48:12.124Z,100.00
2023-03-18T02:50:15.321Z,98.96
2023-03-18T02:52:17.791Z,98.59
2023-03-18T02:54:24.266Z,98.11
2023-03-18T02:56:26.843Z,100.00
2023-03-18T02:58:29.607Z,98.87
2023-03-18T03:00:32.394Z,100.00
2023-03-18T03:02:35.547Z,100.00
2023-03-18T03:04:38.548Z,98.64
2023-03-18T03:06:42.770Z,98.42
2023-03-18T03:08:45.662Z,95.75
2023-03-18T03:10:48.774Z,93.76
2023-03-18T03:12:51.661Z,93.72
2023-03-18T03:14:54.239Z,93.09
2023-03-18T03:16:57.036Z,92.99
2023-03-18T03:18:59.515Z,92.79
2023-03-18T03:21:02.187Z,93.92
2023-03-18T03:23:10.146Z,94.09
2023-03-18T03:25:13.195Z,96.50
2023-03-18T03:27:16.774Z,94.30
2023-03-18T03:29:20.429Z,93.67
2023-03-18T03:31:24.179Z,95.07
2023-03-18T03:33:27.615Z,93.82
2023-03-18T03:35:30.168Z,95.86
2023-03-18T03:37:33.594Z,95.97
2023-03-18T03:39:36.093Z,93.75
2023-03-18T03:41:38.935Z,93.21
2023-03-18T03:43:41.957Z,94.90
2023-03-18T03:45:45.203Z,94.29
2023-03-18T03:47:47.940Z,94.89
2023-03-18T03:49:50.492Z,93.76
2023-03-18T03:51:53.023Z,94.49
2023-03-18T03:53:55.537Z,94.05
2023-03-18T03:55:59.241Z,95.41
2023-03-18T03:58:01.979Z,94.23
2023-03-18T04:00:08.072Z,92.97
2023-03-18T04:02:11.046Z,94.63
2023-03-18T04:04:13.595Z,95.97
2023-03-18T04:06:16.230Z,95.84
2023-03-18T04:08:19.052Z,95.74
2023-03-18T04:10:22.704Z,94.88
2023-03-18T04:12:25.248Z,93.97
2023-03-18T04:14:28.015Z,95.24
2023-03-18T04:16:30.665Z,93.96
2023-03-18T04:18:33.182Z,95.06
2023-03-18T04:20:38.035Z,94.39
2023-03-18T04:22:41.932Z,93.42
2023-03-18T04:24:45.031Z,93.54
2023-03-18T04:26:48.001Z,94.09
2023-03-18T04:28:50.673Z,93.13
2023-03-18T04:30:53.177Z,93.50
2023-03-18T04:32:55.774Z,94.87
2023-03-18T04:35:00.258Z,93.07
2023-03-18T04:37:03.976Z,93.54
2023-03-18T04:39:07.255Z,93.57
2023-03-18T04:41:09.805Z,93.57
2023-03-18T04:43:12.710Z,94.22
2023-03-18T04:45:16.530Z,93.77
2023-03-18T04:47:19.618Z,94.16
2023-03-18T04:49:22.162Z,95.35
2023-03-18T04:51:26.218Z,95.36
2023-03-18T04:53:29.241Z,93.08
2023-03-18T04:55:32.007Z,91.89
2023-03-18T04:57:36.384Z,90.95
2023-03-18T04:59:38.871Z,90.83
2023-03-18T05:01:41.367Z,90.74
2023-03-18T05:03:44.324Z,87.34
2023-03-18T05:05:47.176Z,89.41
2023-03-18T05:07:59.847Z,88.71
2023-03-18T05:10:11.480Z,85.98
2023-03-18T05:12:21.624Z,89.49
2023-03-18T05:14:29.365Z,90.71
2023-03-18T05:16:32.862Z,89.77
2023-03-18T05:18:37.460Z,89.85
2023-03-18T05:20:40.971Z,89.96
2023-03-18T05:22:44.792Z,87.38
2023-03-18T05:24:48.713Z,86.86
2023-03-18T05:26:52.845Z,88.80
2023-03-18T05:28:55.565Z,87.29
2023-03-18T05:30:58.114Z,87.71
2023-03-18T05:33:00.661Z,86.75
2023-03-18T05:35:04.006Z,87.62
2023-03-18T05:37:08.582Z,88.00
2023-03-18T05:39:11.851Z,86.86
2023-03-18T05:41:14.425Z,86.98
2023-03-18T05:43:16.998Z,86.35
2023-03-18T05:45:19.986Z,86.66
2023-03-18T05:47:22.775Z,86.78
2023-03-18T05:49:25.838Z,85.29
2023-03-18T05:51:28.357Z,86.69
2023-03-18T05:53:30.875Z,84.47
2023-03-18T05:55:34.702Z,86.60
2023-03-18T05:57:37.213Z,86.41
2023-03-18T05:59:39.750Z,87.09
2023-03-18T06:01:42.416Z,85.29
2023-03-18T06:03:45.385Z,83.97
2023-03-18T06:05:49.417Z,86.49
2023-03-18T06:07:52.784Z,86.00
2023-03-18T06:09:55.413Z,85.14
2023-03-18T06:11:58.789Z,86.17
2023-03-18T06:14:02.474Z,86.44
2023-03-18T06:16:06.444Z,84.93
2023-03-18T06:18:09.625Z,86.09
2023-03-18T06:20:14.310Z,85.40
2023-03-18T06:22:17.135Z,83.79
2023-03-18T06:24:19.706Z,84.10
2023-03-18T06:26:22.266Z,85.07
2023-03-18T06:28:25.574Z,85.22
2023-03-18T06:30:29.444Z,86.74
2023-03-18T06:32:34.045Z,83.13
2023-03-18T06:34:36.900Z,84.84
2023-03-18T06:36:39.811Z,84.62
2023-03-18T06:38:42.923Z,84.53
2023-03-18T06:40:45.852Z,83.86
2023-03-18T06:42:49.090Z,83.58
2023-03-18T06:44:52.022Z,84.12
2023-03-18T06:46:54.528Z,82.79
2023-03-18T06:48:57.023Z,82.63
2023-03-18T06:50:59.707Z,84.65
2023-03-18T06:53:02.230Z,85.51
2023-03-18T06:55:06.633Z,82.72
2023-03-18T06:57:09.298Z,82.99
2023-03-18T06:59:11.875Z,82.81
2023-03-18T07:01:14.484Z,83.07
2023-03-18T07:03:17.008Z,84.85
2023-03-18T07:05:20.843Z,84.88
2023-03-18T07:07:24.770Z,83.23
2023-03-18T07:09:28.487Z,81.00
2023-03-18T07:11:31.035Z,81.57
2023-03-18T07:13:34.739Z,81.08
2023-03-18T07:15:39.005Z,81.28
2023-03-18T07:17:41.593Z,82.83
2023-03-18T07:19:44.173Z,82.83
2023-03-18T07:21:46.652Z,80.45
2023-03-18T07:23:49.567Z,82.27
2023-03-18T07:25:52.256Z,83.07
2023-03-18T07:27:54.731Z,83.45
2023-03-18T07:29:57.457Z,84.02
2023-03-18T07:31:59.964Z,83.80
2023-03-18T07:34:02.583Z,83.75
2023-03-18T07:36:05.369Z,80.64
2023-03-18T07:38:09.605Z,81.69
2023-03-18T07:40:13.272Z,81.11
2023-03-18T07:42:15.884Z,82.34
2023-03-18T07:44:18.354Z,82.20
2023-03-18T07:46:21.429Z,81.76
2023-03-18T07:48:23.884Z,80.93
2023-03-18T07:50:26.615Z,80.02
2023-03-18T07:52:29.573Z,77.20
2023-03-18T07:54:32.308Z,78.65
2023-03-18T07:56:34.872Z,80.93
2023-03-18T07:58:38.846Z,79.60
2023-03-18T08:00:42.750Z,78.65
2023-03-18T08:02:45.333Z,80.73
2023-03-18T08:04:48.183Z,80.62
2023-03-18T08:06:50.774Z,80.17
2023-03-18T08:08:53.443Z,78.28
2023-03-18T08:11:00.604Z,81.53
2023-03-18T08:13:04.142Z,81.50
2023-03-18T08:15:07.875Z,80.01
2023-03-18T08:17:10.763Z,78.71
2023-03-18T08:19:13.390Z,78.38
2023-03-18T08:21:15.890Z,73.70
2023-03-18T08:23:18.442Z,76.39
2023-03-18T08:25:23.130Z,76.06
2023-03-18T08:27:25.946Z,77.67
2023-03-18T08:29:28.520Z,76.96
2023-03-18T08:31:31.465Z,78.86
2023-03-18T08:33:34.032Z,79.74
2023-03-18T08:35:37.029Z,78.80
2023-03-18T08:37:39.544Z,78.16
2023-03-18T08:39:44.633Z,74.36
2023-03-18T08:41:47.181Z,77.98
2023-03-18T08:43:49.858Z,77.66
2023-03-18T08:45:55.881Z,79.37
2023-03-18T08:47:58.902Z,77.71
2023-03-18T08:50:01.462Z,77.09
2023-03-18T08:52:04.353Z,76.67
2023-03-18T08:54:08.346Z,78.94
2023-03-18T08:56:11.357Z,77.84
2023-03-18T08:58:13.849Z,77.11
2023-03-18T09:00:17.015Z,77.17
2023-03-18T09:02:19.534Z,76.63
2023-03-18T09:04:22.209Z,74.85
2023-03-18T09:06:25.044Z,76.14
2023-03-18T09:08:29.447Z,77.00
2023-03-18T09:10:31.931Z,75.77
2023-03-18T09:12:34.688Z,76.84
2023-03-18T09:14:37.220Z,73.87
2023-03-18T09:16:40.325Z,73.50
2023-03-18T09:18:45.197Z,75.72
2023-03-18T09:20:49.316Z,78.05
2023-03-18T09:22:52.522Z,77.50
2023-03-18T09:24:55.079Z,75.02
2023-03-18T09:26:59.907Z,75.15
2023-03-18T09:29:02.770Z,73.13
2023-03-18T09:31:06.179Z,71.46
2023-03-18T09:33:11.535Z,74.04
2023-03-18T09:35:14.431Z,73.08
2023-03-18T09:37:18.622Z,71.45
2023-03-18T09:39:22.122Z,73.23
2023-03-18T09:41:48.451Z,70.01
2023-03-18T09:44:17.550Z,70.13
2023-03-18T09:46:41.528Z,72.68
2023-03-18T09:48:53.122Z,71.06
2023-03-18T09:50:58.526Z,70.17
2023-03-18T09:53:25.658Z,69.86
2023-03-18T09:55:40.322Z,71.22
2023-03-18T09:57:46.475Z,68.85
2023-03-18T09:59:58.984Z,70.77
2023-03-18T10:02:02.778Z,72.37
2023-03-18T10:04:21.503Z,69.02
2023-03-18T10:06:25.234Z,72.25
2023-03-18T10:08:46.538Z,68.53
2023-03-18T10:10:49.447Z,69.99
2023-03-18T10:13:01.917Z,70.42
2023-03-18T10:15:19.904Z,68.29
2023-03-18T10:17:34.262Z,69.47
2023-03-18T10:19:37.893Z,68.23
2023-03-18T10:21:55.705Z,69.73
2023-03-18T10:24:12.869Z,69.90
2023-03-18T10:27:03.288Z,66.26
2023-03-18T10:29:28.495Z,67.25
2023-03-18T10:32:03.154Z,70.76
2023-03-18T10:34:14.420Z,70.82
2023-03-18T10:36:33.150Z,69.01
2023-03-18T10:38:44.954Z,70.91
2023-03-18T10:40:50.322Z,70.98
2023-03-18T10:42:54.240Z,70.22
2023-03-18T10:45:17.416Z,71.86
2023-03-18T10:47:28.401Z,71.14
2023-03-18T10:49:37.180Z,69.39
2023-03-18T10:51:58.122Z,67.54
2023-03-18T10:54:15.706Z,68.11
2023-03-18T10:56:19.175Z,69.83
2023-03-18T10:58:21.703Z,69.50
2023-03-18T11:00:33.361Z,69.55
2023-03-18T11:02:39.210Z,67.86
2023-03-18T11:04:57.821Z,66.97
2023-03-18T11:07:05.966Z,68.63
2023-03-18T11:09:15.897Z,63.70
2023-03-18T11:11:34.716Z,65.88
2023-03-18T11:13:38.078Z,69.62
2023-03-18T11:15:50.908Z,68.22
2023-03-18T11:17:59.514Z,70.68
2023-03-18T11:20:08.337Z,68.48
2023-03-18T11:22:11.719Z,71.88
2023-03-18T11:24:38.977Z,68.60
2023-03-18T11:26:54.012Z,68.99
2023-03-18T11:29:11.078Z,68.45
2023-03-18T11:31:18.551Z,69.51
2023-03-18T11:33:25.381Z,66.64
2023-03-18T11:35:48.176Z,70.50
2023-03-18T11:37:51.536Z,71.13
2023-03-18T11:40:14.558Z,67.26
2023-03-18T11:42:22.670Z,71.36
2023-03-18T11:44:29.782Z,70.48
2023-03-18T11:46:48.065Z,62.24
2023-03-18T11:48:50.905Z,69.48
2023-03-18T11:51:14.769Z,71.23
2023-03-18T11:53:38.282Z,70.12
2023-03-18T11:55:57.295Z,69.95
2023-03-18T11:58:11.841Z,70.16
2023-03-18T12:00:33.510Z,69.14
2023-03-18T12:02:58.158Z,70.53
2023-03-18T12:05:10.982Z,70.04
2023-03-18T12:07:36.394Z,72.13
2023-03-18T12:09:53.782Z,68.43
2023-03-18T12:12:32.082Z,66.48
2023-03-18T12:14:41.284Z,71.02
2023-03-18T12:17:22.587Z,68.33
2023-03-18T12:19:52.562Z,69.42
2023-03-18T12:22:33.831Z,65.97
2023-03-18T12:24:55.018Z,66.12
2023-03-18T12:26:57.836Z,70.06
2023-03-18T12:29:03.147Z,69.78
2023-03-18T12:31:16.827Z,68.08
2023-03-18T12:33:19.303Z,70.78
2023-03-18T12:35:39.980Z,69.29
2023-03-18T12:38:01.033Z,69.82
2023-03-18T12:40:06.415Z,71.14
2023-03-18T12:42:16.962Z,71.40
2023-03-18T12:44:43.406Z,68.82
2023-03-18T12:47:29.785Z,70.43
2023-03-18T12:49:39.406Z,71.52
2023-03-18T12:51:54.150Z,71.99
2023-03-18T12:54:06.301Z,71.56
2023-03-18T12:56:17.315Z,71.96
2023-03-18T12:58:25.340Z,72.64
2023-03-18T13:00:38.065Z,66.93
2023-03-18T13:03:13.684Z,69.63
2023-03-18T13:05:34.894Z,71.19
2023-03-18T13:07:50.781Z,68.82
2023-03-18T13:10:04.031Z,69.43
2023-03-18T13:12:26.804Z,68.07
2023-03-18T13:14:53.903Z,70.42
2023-03-18T13:16:59.167Z,71.43
2023-03-18T13:19:04.598Z,72.86
2023-03-18T13:21:08.963Z,70.25
2023-03-18T13:23:38.404Z,70.88
2023-03-18T13:26:38.641Z,72.53
2023-03-18T13:28:49.904Z,74.30
2023-03-18T13:31:01.639Z,72.47
2023-03-18T13:33:33.039Z,74.54
2023-03-18T13:36:04.973Z,73.78
2023-03-18T13:38:17.635Z,76.54
2023-03-18T13:40:33.988Z,75.74
2023-03-18T13:42:38.903Z,75.48
2023-03-18T13:44:57.736Z,74.61
2023-03-18T13:47:09.323Z,76.23
2023-03-18T13:49:22.045Z,74.73
2023-03-18T13:51:24.668Z,76.74
2023-03-18T13:53:33.300Z,77.46
2023-03-18T13:55:38.811Z,78.24
2023-03-18T13:57:54.786Z,73.15
2023-03-18T14:00:18.982Z,75.97
2023-03-18T14:02:47.971Z,77.46
2023-03-18T14:04:52.372Z,78.91
2023-03-18T14:07:11.836Z,78.85
2023-03-18T14:09:34.376Z,78.16
2023-03-18T14:11:45.290Z,76.82
2023-03-18T14:13:48.165Z,75.94
2023-03-18T14:15:51.290Z,76.45
2023-03-18T14:17:59.089Z,75.19
2023-03-18T14:20:19.494Z,73.43
2023-03-18T14:22:28.431Z,74.65
2023-03-18T14:24:31.739Z,74.65
2023-03-18T14:26:34.439Z,74.94
2023-03-18T14:29:01.259Z,75.52
2023-03-18T14:31:25.602Z,75.52
2023-03-18T14:33:33.406Z,77.07
2023-03-18T14:35:52.574Z,77.57
2023-03-18T14:38:12.852Z,77.17
2023-03-18T14:40:18.061Z,78.89
2023-03-18T14:42:24.004Z,79.36
2023-03-18T14:44:50.723Z,79.14
2023-03-18T14:46:59.665Z,80.27
2023-03-18T14:49:02.501Z,80.21
2023-03-18T14:51:17.277Z,78.95
2023-03-18T14:53:33.471Z,80.17
2023-03-18T14:55:38.480Z,79.05
2023-03-18T14:57:42.978Z,79.41
2023-03-18T14:59:46.085Z,80.98
2023-03-18T15:01:54.116Z,80.55
2023-03-18T15:03:57.324Z,80.84
2023-03-18T15:06:06.178Z,81.29
2023-03-18T15:08:21.618Z,80.09
2023-03-18T15:10:31.082Z,81.68
2023-03-18T15:12:33.827Z,83.84
2023-03-18T15:14:38.191Z,82.59
2023-03-18T15:16:41.215Z,83.62
2023-03-18T15:18:44.004Z,83.99
2023-03-18T15:20:54.940Z,84.72
2023-03-18T15:22:58.343Z,85.19
2023-03-18T15:25:08.597Z,85.05
2023-03-18T15:27:20.813Z,84.92
2023-03-18T15:29:36.761Z,86.64
2023-03-18T15:31:43.691Z,86.96
2023-03-18T15:33:46.596Z,88.30
2023-03-18T15:36:06.232Z,87.93
2023-03-18T15:38:22.139Z,87.73
2023-03-18T15:40:29.134Z,88.92
2023-03-18T15:42:32.458Z,89.21
2023-03-18T15:44:39.764Z,89.60
2023-03-18T15:46:47.020Z,89.11
2023-03-18T15:48:56.137Z,89.42
2023-03-18T15:51:01.493Z,89.28
2023-03-18T15:53:19.149Z,89.85
2023-03-18T15:55:37.626Z,89.09
2023-03-18T15:57:43.433Z,89.91
2023-03-18T15:59:46.424Z,89.86
2023-03-18T16:01:49.773Z,89.60
2023-03-18T16:03:52.918Z,90.01
2023-03-18T16:05:55.704Z,90.61
2023-03-18T16:07:59.596Z,89.92
2023-03-18T16:10:02.367Z,89.85
2023-03-18T16:12:22.105Z,90.20
2023-03-18T16:14:37.650Z,89.63
2023-03-18T16:16:40.623Z,89.33
2023-03-18T16:18:43.815Z,90.20
2023-03-18T16:20:47.309Z,89.63
2023-03-18T16:22:52.702Z,89.49
2023-03-18T16:24:55.501Z,89.66
2023-03-18T16:26:59.296Z,89.24
2023-03-18T16:29:02.069Z,89.93
2023-03-18T16:31:04.864Z,89.57
2023-03-18T16:33:13.532Z,90.18
2023-03-18T16:35:18.481Z,90.87
2023-03-18T16:37:25.239Z,90.94
2023-03-18T16:39:34.398Z,90.92
2023-03-18T16:41:37.868Z,90.90
2023-03-18T16:43:41.122Z,90.62
2023-03-18T16:45:44.393Z,90.56
2023-03-18T16:47:50.208Z,90.44
2023-03-18T16:49:53.444Z,90.25
2023-03-18T16:51:57.147Z,89.95
2023-03-18T16:54:00.223Z,90.99
2023-03-18T16:56:18.066Z,89.82
2023-03-18T16:58:30.698Z,90.36
2023-03-18T17:00:33.724Z,90.60
2023-03-18T17:02:36.553Z,90.66
2023-03-18T17:04:39.417Z,91.92
2023-03-18T17:06:42.546Z,92.06
2023-03-18T17:08:45.258Z,91.69
2023-03-18T17:10:51.674Z,92.22
2023-03-18T17:12:57.763Z,91.76
2023-03-18T17:15:00.576Z,92.79
2023-03-18T17:17:07.057Z,92.67
2023-03-18T17:19:15.798Z,92.22
2023-03-18T17:21:18.604Z,92.58
2023-03-18T17:23:26.988Z,92.45
2023-03-18T17:25:31.162Z,92.67
2023-03-18T17:27:56.439Z,92.42
2023-03-18T17:29:59.405Z,92.81
2023-03-18T17:32:02.036Z,91.57
2023-03-18T17:34:13.231Z,91.43
2023-03-18T17:36:15.874Z,91.21
2023-03-18T17:38:19.261Z,90.44
2023-03-18T17:40:23.742Z,90.41
2023-03-18T17:42:32.082Z,90.50
2023-03-18T17:44:34.849Z,90.37
2023-03-18T17:46:38.876Z,89.64
2023-03-18T17:48:41.593Z,90.89
2023-03-18T17:50:45.117Z,90.63
2023-03-18T17:52:51.398Z,90.46
2023-03-18T17:54:54.670Z,89.91
2023-03-18T17:56:58.392Z,89.45
2023-03-18T17:59:01.626Z,89.41
2023-03-18T18:01:13.002Z,89.39
2023-03-18T18:03:27.534Z,88.28
2023-03-18T18:05:30.263Z,89.36
2023-03-18T18:07:32.933Z,89.37
2023-03-18T18:09:35.874Z,88.75
2023-03-18T18:11:44.543Z,88.82
2023-03-18T18:13:48.709Z,88.91
2023-03-18T18:15:51.619Z,88.58
2023-03-18T18:17:54.943Z,88.77
2023-03-18T18:19:57.684Z,88.52
2023-03-18T18:22:03.823Z,88.65
2023-03-18T18:24:22.641Z,88.70
2023-03-18T18:26:25.492Z,88.48
2023-03-18T18:28:39.453Z,88.93
2023-03-18T18:30:42.395Z,88.30
2023-03-18T18:32:46.237Z,88.54
2023-03-18T18:34:49.424Z,88.87
2023-03-18T18:36:52.934Z,88.54
2023-03-18T18:38:55.765Z,88.61
2023-03-18T18:41:00.325Z,87.85
2023-03-18T18:43:03.542Z,88.62
2023-03-18T18:45:07.336Z,88.76
2023-03-18T18:47:20.218Z,87.98
2023-03-18T18:49:24.802Z,88.88
2023-03-18T18:51:27.595Z,89.56
2023-03-18T18:53:32.708Z,89.71
2023-03-18T18:55:36.141Z,89.34
2023-03-18T18:57:42.059Z,88.79
2023-03-18T18:59:44.803Z,89.38
2023-03-18T19:01:47.612Z,88.89
2023-03-18T19:03:50.394Z,87.93
2023-03-18T19:05:55.636Z,86.04
2023-03-18T19:07:59.235Z,87.46
2023-03-18T19:10:02.317Z,87.03
2023-03-18T19:12:15.765Z,86.43
2023-03-18T19:14:24.793Z,85.95
2023-03-18T19:16:31.645Z,85.50
2023-03-18T19:18:44.289Z,84.63
2023-03-18T19:20:48.615Z,86.15
2023-03-18T19:22:51.448Z,84.93
2023-03-18T19:24:54.861Z,85.93
2023-03-18T19:27:03.190Z,85.35
2023-03-18T19:29:06.655Z,84.31
2023-03-18T19:31:10.191Z,85.17
2023-03-18T19:33:17.174Z,84.34
2023-03-18T19:35:19.968Z,84.48
2023-03-18T19:37:27.488Z,83.87
2023-03-18T19:39:30.303Z,84.58
2023-03-18T19:41:33.109Z,84.66
2023-03-18T19:43:36.562Z,83.95
2023-03-18T19:45:41.237Z,84.47
2023-03-18T19:47:45.963Z,85.02
2023-03-18T19:49:49.173Z,84.40
2023-03-18T19:51:52.319Z,84.74
2023-03-18T19:53:55.074Z,84.95
2023-03-18T19:55:57.889Z,84.72
2023-03-18T19:58:00.652Z,84.33
2023-03-18T20:00:09.127Z,83.34
2023-03-18T20:02:30.791Z,83.12
2023-03-18T20:04:33.584Z,82.81
2023-03-18T20:06:36.439Z,83.74
2023-03-18T20:08:39.635Z,84.07
2023-03-18T20:10:44.735Z,83.30
2023-03-18T20:12:51.236Z,83.26
2023-03-18T20:14:53.980Z,84.75
2023-03-18T20:17:00.821Z,85.23
2023-03-18T20:19:03.865Z,84.40
2023-03-18T20:21:08.975Z,83.93
2023-03-18T20:23:19.165Z,83.85
2023-03-18T20:25:26.920Z,84.24
2023-03-18T20:27:30.877Z,84.54
2023-03-18T20:29:34.290Z,84.33
2023-03-18T20:31:37.208Z,82.41
2023-03-18T20:33:40.069Z,83.37
2023-03-18T20:35:45.025Z,83.84
2023-03-18T20:37:48.227Z,84.59
2023-03-18T20:39:52.395Z,85.07
2023-03-18T20:41:55.262Z,84.70
2023-03-18T20:43:58.083Z,83.20
2023-03-18T20:46:02.282Z,84.10
2023-03-18T20:48:05.174Z,83.94
2023-03-18T20:50:09.318Z,83.55
2023-03-18T20:52:24.472Z,83.28
2023-03-18T20:54:31.744Z,84.22
2023-03-18T20:56:35.484Z,83.52
2023-03-18T20:58:38.461Z,83.56
2023-03-18T21:00:41.498Z,84.21
2023-03-18T21:02:44.886Z,83.91
2023-03-18T21:04:47.838Z,84.51
2023-03-18T21:06:50.626Z,83.59
2023-03-18T21:08:53.385Z,84.62
2023-03-18T21:11:00.989Z,84.42
2023-03-18T21:13:29.392Z,82.21
2023-03-18T21:15:32.954Z,83.13
2023-03-18T21:17:36.473Z,83.81
2023-03-18T21:19:39.292Z,83.24
2023-03-18T21:21:42.286Z,83.03
2023-03-18T21:23:45.111Z,82.77
2023-03-18T21:25:48.589Z,82.13
2023-03-18T21:27:51.886Z,83.71
2023-03-18T21:29:58.101Z,83.82
2023-03-18T21:32:02.758Z,82.09
2023-03-18T21:34:05.672Z,84.05
2023-03-18T21:36:10.471Z,82.36
2023-03-18T21:38:13.144Z,83.95
2023-03-18T21:40:18.822Z,83.49
2023-03-18T21:42:33.604Z,83.09
2023-03-18T21:44:36.509Z,82.02
2023-03-18T21:46:39.317Z,83.30
2023-03-18T21:48:42.008Z,82.30
2023-03-18T21:50:45.311Z,81.13
2023-03-18T21:52:48.232Z,82.67
2023-03-18T21:54:50.979Z,83.29
2023-03-18T21:56:53.724Z,83.01
2023-03-18T21:58:56.511Z,83.73
2023-03-18T22:01:00.375Z,82.33
2023-03-18T22:03:06.234Z,83.04
2023-03-18T22:05:18.355Z,82.29
2023-03-18T22:07:23.134Z,83.07
2023-03-18T22:09:27.677Z,81.93
2023-03-18T22:11:30.638Z,83.43
2023-03-18T22:13:33.809Z,82.66
2023-03-18T22:15:39.037Z,82.26
2023-03-18T22:17:42.034Z,82.12
2023-03-18T22:19:44.804Z,82.26
2023-03-18T22:21:47.586Z,82.55
2023-03-18T22:23:51.021Z,81.76
2023-03-18T22:25:55.943Z,82.67
2023-03-18T22:27:59.660Z,82.26
2023-03-18T22:30:02.582Z,82.11
2023-03-18T22:32:06.972Z,81.96
2023-03-18T22:34:22.763Z,81.91
2023-03-18T22:36:27.740Z,83.05
2023-03-18T22:38:32.006Z,82.40
2023-03-18T22:40:34.863Z,82.60
2023-03-18T22:42:37.579Z,81.50
2023-03-18T22:44:40.257Z,83.56
2023-03-18T22:46:42.974Z,82.00
2023-03-18T22:48:45.830Z,83.33
2023-03-18T22:50:48.824Z,84.05
2023-03-18T22:53:06.413Z,82.61
2023-03-18T22:55:25.284Z,82.47
2023-03-18T22:57:28.971Z,83.46
2023-03-18T22:59:31.782Z,79.69
2023-03-18T23:01:34.801Z,81.03
2023-03-18T23:03:40.675Z,83.35
2023-03-18T23:05:43.547Z,82.67
2023-03-18T23:07:47.010Z,82.20
2023-03-18T23:09:56.394Z,83.68
2023-03-18T23:11:59.769Z,81.94
2023-03-18T23:14:04.019Z,83.96
2023-03-18T23:16:09.598Z,84.29
2023-03-18T23:18:17.027Z,83.28
2023-03-18T23:20:19.780Z,83.29
2023-03-18T23:22:28.610Z,83.05
2023-03-18T23:24:31.821Z,84.61
2023-03-18T23:26:34.583Z,86.03
2023-03-18T23:28:44.517Z,85.15
2023-03-18T23:30:50.759Z,84.50
2023-03-18T23:32:53.600Z,82.45
2023-03-18T23:34:56.350Z,83.83
2023-03-18T23:36:59.184Z,83.65
2023-03-18T23:39:02.154Z,84.66
2023-03-18T23:41:05.476Z,83.37
2023-03-18T23:43:09.321Z,82.06
2023-03-18T23:45:12.668Z,82.84
2023-03-18T23:47:16.732Z,82.44
2023-03-18T23:49:20.272Z,81.78
2023-03-18T23:51:23.012Z,80.89
2023-03-18T23:53:25.864Z,80.92
2023-03-18T23:55:34.936Z,80.97
2023-03-18T23:57:37.999Z,81.23
2023-03-18T23:59:40.932Z,81.81
